Time;durP1;ratioP1;P1;durP2;ratioP2;P2;SDS_P1;SDS_P2;PMS_P1;PMS_P2;Temp;Humidity;BMP_temperature;BMP_pressure;BME280_temperature;BME280_humidity;BME280_pressure;Samples;Min_cycle;Max_cycle;Signal;HPM_P1;HPM_P2
2022/09/11 00:02:26;;;;;;;0.50;0.50;;;19.20;76.70;19.50;96493.00;;;;5096909;28;20214;-83
2022/09/11 00:04:54;;;;;;;0.30;0.23;;;19.20;76.70;19.50;96489.00;;;;5111220;28;20286;-83
2022/09/11 00:07:21;;;;;;;1.67;0.30;;;19.20;76.70;19.50;96490.00;;;;5114413;28;20673;-83
2022/09/11 00:09:48;;;;;;;0.50;0.40;;;19.20;76.60;19.50;96499.00;;;;5111035;28;20242;-83
2022/09/11 00:12:16;;;;;;;0.50;0.40;;;19.20;76.50;19.50;96493.00;;;;5107905;28;20694;-83
2022/09/11 00:14:43;;;;;;;1.67;0.40;;;19.20;76.30;19.50;96491.00;;;;5106149;28;20251;-83
2022/09/11 00:17:11;;;;;;;0.53;0.20;;;19.20;76.30;19.50;96494.00;;;;5106679;28;20258;-83
2022/09/11 00:19:41;;;;;;;2.40;0.40;;;19.20;76.30;19.50;96498.00;;;;5102873;28;20305;-83
2022/09/11 00:22:08;;;;;;;0.70;0.40;;;19.20;76.20;19.50;96495.00;;;;5110848;28;20198;-83
2022/09/11 00:24:36;;;;;;;1.93;0.30;;;19.20;76.20;19.50;96490.00;;;;5108779;28;20198;-84
2022/09/11 00:27:03;;;;;;;0.30;0.20;;;19.10;76.10;19.50;96490.00;;;;5103509;28;20241;-84
2022/09/11 00:29:32;;;;;;;2.10;0.50;;;19.20;76.10;19.50;96489.00;;;;5108247;28;20238;-83
2022/09/11 00:31:59;;;;;;;1.20;0.53;;;19.20;76.20;19.50;96499.00;;;;5103513;28;20195;-84
2022/09/11 00:34:26;;;;;;;0.40;0.40;;;19.20;76.30;19.50;96491.00;;;;5111234;28;20273;-83
2022/09/11 00:36:54;;;;;;;0.23;0.20;;;19.20;76.20;19.50;96496.00;;;;5110323;28;20222;-83
2022/09/11 00:39:21;;;;;;;0.67;0.40;;;19.10;76.10;19.50;96492.00;;;;5104542;28;20282;-83
2022/09/11 00:41:48;;;;;;;0.30;0.30;;;19.10;76.10;19.50;96491.00;;;;5114996;27;20222;-83
2022/09/11 00:45:00;;;;;;;1.17;0.57;;;19.10;76.10;19.40;96487.00;;;;5105507;28;20222;-83
2022/09/11 00:47:29;;;;;;;0.73;0.37;;;19.20;76.00;19.40;96489.00;;;;5110419;28;20274;-83
2022/09/11 00:50:07;;;;;;;0.30;0.30;;;19.10;75.90;19.40;96485.00;;;;5114119;28;20217;-84
2022/09/11 00:52:41;;;;;;;1.50;0.70;;;19.10;75.80;19.40;96483.00;;;;5110945;28;20735;-83
2022/09/11 00:55:13;;;;;;;0.30;0.30;;;19.10;75.90;19.40;96486.00;;;;5104744;28;20215;-83
2022/09/11 00:57:45;;;;;;;1.00;0.30;;;19.10;75.90;19.40;96473.00;;;;5108202;27;20186;-84
2022/09/11 01:00:15;;;;;;;2.10;0.57;;;19.10;76.10;19.40;96479.00;;;;5108377;28;20309;-83
2022/09/11 01:02:48;;;;;;;1.13;0.27;;;19.10;76.10;19.40;96478.00;;;;5113457;28;20202;-84
2022/09/11 01:05:16;;;;;;;0.63;0.63;;;19.10;76.10;19.40;96472.00;;;;5113537;28;20194;-83
2022/09/11 01:07:47;;;;;;;0.20;0.20;;;19.10;76.10;19.40;96476.00;;;;5114528;28;20653;-83
2022/09/11 01:10:15;;;;;;;0.60;0.37;;;19.10;76.00;19.40;96469.00;;;;5113078;28;20774;-84
2022/09/11 01:13:00;;;;;;;0.30;0.30;;;19.10;75.90;19.40;96478.00;;;;5109577;28;20628;-84
2022/09/11 01:15:40;;;;;;;0.47;0.30;;;19.10;75.90;19.40;96467.00;;;;5112172;28;20187;-83
2022/09/11 01:18:15;;;;;;;1.13;0.40;;;19.10;75.90;19.40;96470.00;;;;5105957;28;20684;-84
2022/09/11 01:21:07;;;;;;;0.87;0.40;;;19.00;76.00;19.40;96466.00;;;;5112945;28;20278;-84
2022/09/11 01:24:04;;;;;;;0.50;0.33;;;19.00;75.90;19.30;96465.00;;;;5107012;28;20186;-83
2022/09/11 01:26:58;;;;;;;1.30;0.30;;;19.10;75.90;19.30;96459.00;;;;5102740;28;20625;-83
2022/09/11 01:29:34;;;;;;;0.63;0.30;;;19.00;75.80;19.30;96468.00;;;;5113184;28;20229;-84
2022/09/11 01:32:14;;;;;;;1.80;0.83;;;19.00;75.70;19.30;96469.00;;;;5107043;28;20621;-84
2022/09/11 01:34:53;;;;;;;0.50;0.30;;;19.00;75.60;19.30;96463.00;;;;5113608;28;20193;-83
2022/09/11 01:37:48;;;;;;;0.30;0.30;;;19.00;75.70;19.20;96462.00;;;;5116063;27;20604;-84
2022/09/11 01:40:24;;;;;;;0.77;0.50;;;19.00;75.40;19.20;96465.00;;;;5110213;27;20223;-83
2022/09/11 01:43:02;;;;;;;0.60;0.40;;;19.00;75.60;19.20;96468.00;;;;5096780;28;20225;-83
2022/09/11 01:45:34;;;;;;;0.50;0.30;;;19.00;75.60;19.20;96465.00;;;;5107817;28;20659;-84
2022/09/11 01:48:01;;;;;;;0.30;0.30;;;18.90;75.50;19.20;96467.00;;;;5100455;27;20282;-84
2022/09/11 01:50:32;;;;;;;0.50;0.30;;;18.90;75.70;19.20;96466.00;;;;5103893;27;20226;-85
2022/09/11 01:53:05;;;;;;;1.70;0.30;;;18.90;75.80;19.20;96462.00;;;;5103012;28;20225;-85
2022/09/11 01:55:47;;;;;;;0.87;0.30;;;18.90;75.70;19.20;96472.00;;;;5112889;28;20297;-85
2022/09/11 01:58:26;;;;;;;1.17;0.40;;;18.90;75.80;19.20;96464.00;;;;5107259;28;20187;-84
2022/09/11 02:01:08;;;;;;;0.30;0.30;;;18.90;75.90;19.20;96466.00;;;;5099213;28;20305;-85
2022/09/11 02:03:41;;;;;;;0.33;0.33;;;18.90;76.00;19.20;96462.00;;;;5114227;28;20669;-85
2022/09/11 02:06:14;;;;;;;1.17;0.33;;;18.90;75.90;19.20;96461.00;;;;5110107;28;20230;-84
2022/09/11 02:08:49;;;;;;;0.40;0.40;;;18.90;75.80;19.20;96464.00;;;;5098355;28;20644;-84
2022/09/11 02:11:18;;;;;;;1.37;0.30;;;18.90;75.70;19.20;96461.00;;;;5114460;27;20223;-84
2022/09/11 02:13:55;;;;;;;0.77;0.40;;;18.90;75.60;19.20;96463.00;;;;5104922;28;20289;-85
2022/09/11 02:16:42;;;;;;;1.00;0.40;;;18.90;75.40;19.20;96457.00;;;;5101822;27;20187;-85
2022/09/11 02:19:15;;;;;;;0.67;0.33;;;18.90;75.50;19.20;96461.00;;;;5109034;27;20233;-85
2022/09/11 02:21:46;;;;;;;0.33;0.27;;;18.90;75.50;19.10;96457.00;;;;5113594;27;20224;-85
2022/09/11 02:24:15;;;;;;;1.90;0.47;;;18.90;75.40;19.10;96454.00;;;;5111866;28;20240;-85
2022/09/11 02:26:46;;;;;;;0.60;0.40;;;18.90;75.40;19.10;96453.00;;;;5105239;28;20528;-85
2022/09/11 02:29:15;;;;;;;0.40;0.20;;;18.90;75.60;19.10;96456.00;;;;5104512;28;20222;-84
2022/09/11 02:31:44;;;;;;;1.63;0.63;;;18.90;75.60;19.10;96456.00;;;;5111358;27;20249;-85
2022/09/11 02:34:14;;;;;;;1.87;0.40;;;18.90;75.70;19.10;96451.00;;;;5121993;27;20262;-85
2022/09/11 02:37:22;;;;;;;1.20;0.40;;;18.90;75.80;19.10;96454.00;;;;5110960;28;20605;-84
2022/09/11 02:40:11;;;;;;;0.97;0.30;;;18.90;76.20;19.20;96451.00;;;;5112147;28;20245;-84
2022/09/11 02:43:07;;;;;;;0.23;0.23;;;18.90;76.10;19.10;96453.00;;;;5110290;28;20721;-85
2022/09/11 02:45:46;;;;;;;2.03;0.40;;;18.90;76.10;19.10;96450.00;;;;5112131;28;20643;-84
2022/09/11 02:48:38;;;;;;;1.13;0.30;;;18.80;76.00;19.10;96442.00;;;;5112414;28;20642;-84
2022/09/11 02:51:18;;;;;;;1.17;0.40;;;18.80;76.40;19.00;96445.00;;;;5106493;27;20256;-84
2022/09/11 02:53:56;;;;;;;1.23;0.60;;;18.80;76.30;19.00;96436.00;;;;5110972;28;20267;-83
2022/09/11 02:56:38;;;;;;;1.43;0.40;;;18.80;77.20;19.00;96442.00;;;;5110742;28;20285;-84
2022/09/11 02:59:16;;;;;;;0.40;0.40;;;18.80;76.70;19.00;96437.00;;;;5098996;27;20559;-84
2022/09/11 03:01:57;;;;;;;1.13;0.40;;;18.80;76.60;19.00;96439.00;;;;5108657;27;20231;-83
2022/09/11 03:04:26;;;;;;;1.67;0.40;;;18.80;76.80;19.00;96438.00;;;;5109482;27;20226;-84
2022/09/11 03:06:54;;;;;;;0.70;0.53;;;18.70;76.60;19.00;96438.00;;;;5110126;28;20199;-84
2022/09/11 03:09:22;;;;;;;0.30;0.23;;;18.70;76.70;19.00;96442.00;;;;5108994;28;20198;-84
2022/09/11 03:11:50;;;;;;;0.70;0.30;;;18.70;76.70;19.00;96428.00;;;;5103462;28;20202;-84
2022/09/11 03:14:18;;;;;;;0.30;0.30;;;18.70;76.80;19.00;96435.00;;;;5106542;28;20277;-84
2022/09/11 03:16:45;;;;;;;0.30;0.30;;;18.70;76.80;19.00;96437.00;;;;5109221;28;20569;-84
2022/09/11 03:19:13;;;;;;;1.40;0.40;;;18.70;76.80;19.00;96438.00;;;;5115357;27;20655;-84
2022/09/11 03:21:45;;;;;;;0.50;0.40;;;18.70;76.80;19.00;96432.00;;;;5110516;28;20218;-84
2022/09/11 03:24:14;;;;;;;0.93;0.30;;;18.70;76.90;19.00;96437.00;;;;5108216;28;20613;-84
2022/09/11 03:26:45;;;;;;;0.47;0.40;;;18.70;76.90;19.00;96436.00;;;;5107398;28;20256;-85
2022/09/11 03:29:15;;;;;;;0.30;0.30;;;18.70;77.00;19.00;96442.00;;;;5113551;27;20183;-83
2022/09/11 03:31:46;;;;;;;0.20;0.20;;;18.70;76.90;19.00;96433.00;;;;5109159;27;20285;-84
2022/09/11 03:34:16;;;;;;;0.43;0.43;;;18.70;77.00;19.00;96437.00;;;;5119695;27;20597;-84
2022/09/11 03:36:47;;;;;;;0.70;0.50;;;18.70;77.20;19.00;96436.00;;;;5114504;27;20202;-85
2022/09/11 03:39:14;;;;;;;0.37;0.37;;;18.70;77.10;19.00;96442.00;;;;5114185;27;20214;-85
2022/09/11 03:41:42;;;;;;;0.50;0.50;;;18.70;77.00;19.00;96428.00;;;;5110767;27;20214;-84
2022/09/11 03:44:11;;;;;;;0.77;0.40;;;18.70;77.10;19.00;96426.00;;;;5110055;28;20640;-84
2022/09/11 03:46:38;;;;;;;0.50;0.43;;;18.70;77.10;19.00;96432.00;;;;5111286;28;20206;-84
2022/09/11 03:49:06;;;;;;;0.73;0.40;;;18.70;77.30;19.00;96427.00;;;;5115620;27;20191;-84
2022/09/11 03:51:34;;;;;;;1.30;0.53;;;18.70;77.30;19.00;96431.00;;;;5110283;28;20730;-84
2022/09/11 03:54:02;;;;;;;0.50;0.50;;;18.70;77.30;19.00;96430.00;;;;5091742;28;20632;-84
2022/09/11 03:56:30;;;;;;;0.47;0.40;;;18.70;77.30;19.00;96428.00;;;;5103404;28;20186;-85
2022/09/11 03:58:58;;;;;;;2.13;0.40;;;18.70;77.30;19.00;96428.00;;;;5111561;28;20289;-84
2022/09/11 04:01:26;;;;;;;1.00;0.57;;;18.70;77.20;19.00;96435.00;;;;5114486;27;20674;-84
2022/09/11 04:03:54;;;;;;;1.03;0.40;;;18.70;77.20;19.10;96426.00;;;;5113766;28;20203;-84
2022/09/11 04:06:21;;;;;;;1.10;0.50;;;18.70;77.20;19.10;96430.00;;;;5111037;28;20187;-84
2022/09/11 04:08:48;;;;;;;0.33;0.20;;;18.70;77.10;19.10;96443.00;;;;5097315;28;20191;-84
2022/09/11 04:11:17;;;;;;;0.40;0.30;;;18.70;77.20;19.10;96446.00;;;;5096096;28;20297;-84
2022/09/11 04:13:44;;;;;;;0.63;0.33;;;18.70;77.20;19.10;96443.00;;;;5110394;28;20638;-84
2022/09/11 04:16:15;;;;;;;1.00;0.40;;;18.80;77.10;19.10;96441.00;;;;5110169;28;20225;-84
2022/09/11 04:18:44;;;;;;;1.57;0.50;;;18.70;77.20;19.10;96439.00;;;;5113705;27;20195;-84
2022/09/11 04:21:14;;;;;;;0.97;0.60;;;18.80;77.30;19.10;96436.00;;;;5104974;28;20301;-83
2022/09/11 04:23:44;;;;;;;0.70;0.30;;;18.80;77.60;19.10;96426.00;;;;5112536;28;20278;-83
2022/09/11 04:26:18;;;;;;;0.47;0.43;;;18.80;77.70;19.00;96431.00;;;;5111260;28;20662;-84
2022/09/11 04:28:46;;;;;;;0.63;0.40;;;18.80;77.90;19.00;96432.00;;;;5111984;28;20199;-84
2022/09/11 04:31:15;;;;;;;0.33;0.33;;;18.70;77.80;19.00;96424.00;;;;5104499;28;20646;-84
2022/09/11 04:33:43;;;;;;;0.77;0.47;;;18.70;77.90;19.00;96431.00;;;;5111787;28;20286;-82
2022/09/11 04:39:15;;;;;;;0.40;0.40;;;18.90;78.60;18.90;96430.00;;;;5101308;28;20713;-84
2022/09/11 04:41:44;;;;;;;0.30;0.30;;;18.70;78.20;18.90;96423.00;;;;5184719;22;20640;-89
2022/09/11 04:44:11;;;;;;;0.90;0.50;;;18.70;78.40;18.90;96423.00;;;;5097024;28;20218;-88
2022/09/11 04:46:39;;;;;;;1.40;0.50;;;18.60;78.50;18.90;96425.00;;;;5094434;28;20207;-87
2022/09/11 04:49:09;;;;;;;0.40;0.40;;;18.60;78.50;18.90;96428.00;;;;5084896;28;20200;-87
2022/09/11 04:51:38;;;;;;;0.40;0.40;;;18.60;78.50;18.90;96424.00;;;;5086984;28;20199;-87
2022/09/11 04:54:06;;;;;;;0.67;0.40;;;18.60;78.70;18.90;96432.00;;;;5104153;22;20220;-83
2022/09/11 04:56:37;;;;;;;0.57;0.30;;;18.60;78.60;18.90;96428.00;;;;5089496;28;20206;-84
2022/09/11 04:59:12;;;;;;;0.87;0.23;;;18.60;78.60;18.90;96435.00;;;;5095739;28;20180;-83
2022/09/11 05:01:40;;;;;;;0.50;0.50;;;18.60;79.50;18.90;96428.00;;;;5092402;28;20291;-83
2022/09/11 05:04:07;;;;;;;0.70;0.50;;;18.60;78.70;18.90;96436.00;;;;5095189;28;20217;-83
2022/09/11 05:06:36;;;;;;;0.43;0.43;;;18.60;78.80;18.90;96428.00;;;;5092671;28;20199;-82
2022/09/11 05:09:06;;;;;;;0.93;0.53;;;18.60;78.70;18.90;96424.00;;;;5095631;28;20207;-83
2022/09/11 05:11:34;;;;;;;1.27;0.80;;;18.60;78.70;18.90;96430.00;;;;5090069;28;20315;-85
2022/09/11 05:14:01;;;;;;;1.07;0.50;;;18.50;78.50;18.80;96429.00;;;;5094584;28;20225;-83
2022/09/11 05:16:33;;;;;;;0.77;0.30;;;18.50;78.60;18.80;96429.00;;;;5093645;28;20660;-83
2022/09/11 05:19:02;;;;;;;2.47;0.90;;;18.50;78.70;18.80;96426.00;;;;5096008;28;20199;-85
2022/09/11 05:21:30;;;;;;;0.90;0.77;;;18.50;78.70;18.80;96431.00;;;;5080717;28;20271;-84
2022/09/11 05:24:00;;;;;;;0.50;0.40;;;18.50;78.80;18.90;96427.00;;;;5094539;28;20215;-85
2022/09/11 05:26:30;;;;;;;0.60;0.40;;;18.50;78.80;18.90;96433.00;;;;5094147;28;20191;-85
2022/09/11 05:28:59;;;;;;;1.30;0.47;;;18.50;78.90;18.90;96428.00;;;;5093045;28;20202;-84
2022/09/11 05:31:30;;;;;;;0.47;0.40;;;18.50;78.90;18.90;96432.00;;;;5093712;28;20191;-85
2022/09/11 05:33:59;;;;;;;1.30;0.50;;;18.50;78.90;18.90;96433.00;;;;5082091;28;20219;-85
2022/09/11 05:36:29;;;;;;;1.13;0.70;;;18.60;78.90;19.00;96437.00;;;;5088559;28;20200;-85
2022/09/11 05:38:58;;;;;;;0.43;0.40;;;18.60;78.80;19.00;96438.00;;;;5095635;28;20278;-84
2022/09/11 05:41:25;;;;;;;0.30;0.30;;;18.60;78.90;19.00;96440.00;;;;5073750;28;20206;-85
2022/09/11 05:43:53;;;;;;;2.90;1.13;;;18.60;78.70;19.00;96440.00;;;;5085893;28;20250;-84
2022/09/11 05:46:21;;;;;;;1.10;0.57;;;18.60;78.80;19.00;96436.00;;;;5075711;28;20671;-84
2022/09/11 05:48:50;;;;;;;1.07;0.33;;;18.60;78.70;19.00;96442.00;;;;5087619;28;20192;-84
2022/09/11 05:51:20;;;;;;;0.60;0.60;;;18.70;78.70;19.00;96433.00;;;;5093304;28;20202;-85
2022/09/11 05:53:49;;;;;;;0.50;0.50;;;18.70;78.60;19.00;96443.00;;;;5093049;28;20313;-85
2022/09/11 05:56:19;;;;;;;0.70;0.70;;;18.70;78.50;19.00;96449.00;;;;5079773;28;20245;-84
2022/09/11 05:58:50;;;;;;;0.80;0.73;;;18.70;78.50;19.00;96455.00;;;;5092939;28;20547;-85
2022/09/11 06:01:20;;;;;;;1.70;0.53;;;18.70;78.60;19.00;96456.00;;;;5094329;28;20192;-83
2022/09/11 06:03:49;;;;;;;0.53;0.50;;;18.70;78.50;19.00;96462.00;;;;5093381;28;20316;-83
2022/09/11 06:06:20;;;;;;;1.33;0.57;;;18.70;78.60;19.00;96459.00;;;;5079139;28;20199;-84
2022/09/11 06:08:47;;;;;;;1.43;0.57;;;18.70;78.70;19.00;96462.00;;;;5083120;28;20195;-85
2022/09/11 06:11:18;;;;;;;0.57;0.57;;;18.70;78.80;19.00;96462.00;;;;5081631;28;20192;-84
2022/09/11 06:13:47;;;;;;;0.50;0.50;;;18.70;78.90;19.00;96472.00;;;;5073362;28;20314;-84
2022/09/11 06:16:17;;;;;;;0.50;0.40;;;18.70;79.00;19.00;96466.00;;;;5091565;28;20194;-85
2022/09/11 06:18:47;;;;;;;0.43;0.40;;;18.70;79.20;19.00;96468.00;;;;5084453;28;20575;-86
2022/09/11 06:21:19;;;;;;;0.53;0.53;;;18.70;79.20;19.00;96473.00;;;;5089166;28;20196;-85
2022/09/11 06:23:46;;;;;;;0.60;0.40;;;18.70;80.10;19.00;96472.00;;;;5073878;28;20224;-84
2022/09/11 06:26:16;;;;;;;0.83;0.60;;;18.70;80.30;18.90;96476.00;;;;5093412;28;20708;-85
2022/09/11 06:28:43;;;;;;;0.67;0.50;;;18.70;80.00;18.90;96468.00;;;;5113728;28;20285;-85
2022/09/11 06:31:15;;;;;;;1.00;0.60;;;18.60;80.00;18.90;96474.00;;;;5112725;28;20194;-85
2022/09/11 06:33:43;;;;;;;1.27;0.50;;;18.60;80.20;18.90;96484.00;;;;5113588;28;20223;-84
2022/09/11 06:36:13;;;;;;;1.57;0.50;;;18.60;80.40;18.90;96484.00;;;;5112951;28;20294;-84
2022/09/11 06:38:41;;;;;;;0.97;0.50;;;18.60;80.50;18.80;96484.00;;;;5101439;27;20193;-84
2022/09/11 06:41:12;;;;;;;0.93;0.60;;;18.60;81.50;18.80;96480.00;;;;5097927;28;20551;-85
2022/09/11 06:43:40;;;;;;;2.60;0.90;;;18.60;81.00;18.80;96478.00;;;;5103999;28;20215;-85
2022/09/11 06:46:11;;;;;;;1.37;0.60;;;18.60;81.20;18.80;96484.00;;;;5074618;28;20283;-85
2022/09/11 06:48:39;;;;;;;1.23;0.67;;;18.50;81.30;18.80;96488.00;;;;5086502;28;20851;-84
2022/09/11 06:51:10;;;;;;;0.70;0.70;;;18.50;81.40;18.80;96497.00;;;;5094853;28;20678;-85
2022/09/11 06:53:37;;;;;;;1.33;0.80;;;18.50;81.60;18.80;96477.00;;;;5091223;28;20286;-84
2022/09/11 06:56:07;;;;;;;1.07;0.70;;;18.50;81.70;18.90;96496.00;;;;5099763;28;20695;-84
2022/09/11 06:58:35;;;;;;;0.63;0.60;;;18.50;81.70;18.90;96492.00;;;;5098689;28;20720;-84
2022/09/11 07:01:03;;;;;;;1.63;0.80;;;18.50;81.70;18.90;96497.00;;;;5077133;28;20238;-84
2022/09/11 07:03:31;;;;;;;0.50;0.50;;;18.50;81.80;18.90;96499.00;;;;5072159;28;20227;-84
2022/09/11 07:05:59;;;;;;;0.60;0.60;;;18.50;81.90;18.90;96497.00;;;;5071812;28;20196;-84
2022/09/11 07:08:26;;;;;;;1.37;0.60;;;18.50;81.90;18.90;96495.00;;;;5086744;28;20797;-86
2022/09/11 07:10:54;;;;;;;1.97;0.90;;;18.50;81.80;18.90;96504.00;;;;5082926;28;20210;-85
2022/09/11 07:13:23;;;;;;;0.80;0.80;;;18.50;81.80;18.90;96511.00;;;;5092037;28;20381;-84
2022/09/11 07:16:00;;;;;;;1.17;0.90;;;18.50;82.00;18.90;96503.00;;;;5092713;28;20195;-85
2022/09/11 07:18:31;;;;;;;0.80;0.80;;;18.50;82.00;18.90;96503.00;;;;5091395;28;20254;-85
2022/09/11 07:20:58;;;;;;;0.80;0.80;;;18.60;82.30;18.90;96509.00;;;;5082303;28;20270;-85
2022/09/11 07:23:26;;;;;;;0.93;0.80;;;18.60;82.30;18.90;96507.00;;;;5092146;28;20865;-88
2022/09/11 07:25:53;;;;;;;1.50;0.90;;;18.60;82.30;18.90;96516.00;;;;5101617;28;20230;-84
2022/09/11 07:28:21;;;;;;;1.10;1.03;;;18.60;82.30;18.90;96513.00;;;;5092033;28;20192;-86
2022/09/11 07:30:48;;;;;;;1.43;0.80;;;18.60;82.40;19.00;96515.00;;;;5091163;28;20195;-84
2022/09/11 07:33:16;;;;;;;1.07;0.83;;;18.60;82.40;19.00;96514.00;;;;5091560;28;20272;-86
2022/09/11 07:35:43;;;;;;;0.90;0.90;;;18.60;82.60;19.00;96520.00;;;;5091528;28;20203;-85
2022/09/11 07:38:10;;;;;;;1.00;0.87;;;18.60;82.50;19.00;96522.00;;;;5091801;28;20205;-86
2022/09/11 07:40:37;;;;;;;1.07;1.00;;;18.60;82.60;19.00;96528.00;;;;5091843;28;20278;-85
2022/09/11 07:43:04;;;;;;;1.10;0.90;;;18.60;82.60;19.10;96531.00;;;;5091661;28;20315;-85
2022/09/11 07:45:33;;;;;;;1.20;1.10;;;18.70;82.60;19.10;96539.00;;;;5091430;28;20199;-86
2022/09/11 07:48:01;;;;;;;0.80;0.80;;;18.70;82.60;19.10;96539.00;;;;5096920;28;20274;-87
2022/09/11 07:50:28;;;;;;;1.03;0.93;;;18.70;82.60;19.10;96543.00;;;;5074619;28;20196;-85
2022/09/11 07:52:55;;;;;;;1.27;0.80;;;18.70;82.50;19.10;96541.00;;;;5085507;28;20726;-85
2022/09/11 07:55:22;;;;;;;1.10;1.10;;;18.70;82.50;19.20;96547.00;;;;5088776;28;20724;-86
2022/09/11 07:57:50;;;;;;;2.00;0.90;;;18.70;82.60;19.20;96544.00;;;;5089717;28;20294;-86
2022/09/11 08:00:18;;;;;;;0.83;0.83;;;18.70;83.40;19.20;96552.00;;;;5088352;28;20198;-85
2022/09/11 08:02:47;;;;;;;1.07;1.03;;;18.80;82.80;19.20;96557.00;;;;5091095;28;20302;-85
2022/09/11 08:05:15;;;;;;;0.80;0.80;;;18.80;82.80;19.20;96555.00;;;;5104073;28;20199;-86
2022/09/11 08:07:42;;;;;;;1.93;1.03;;;18.80;82.80;19.20;96552.00;;;;5121047;28;20225;-85
2022/09/11 08:10:10;;;;;;;1.00;1.00;;;18.80;82.80;19.30;96556.00;;;;5100881;28;20653;-86
2022/09/11 08:12:37;;;;;;;1.33;1.10;;;18.80;82.70;19.30;96551.00;;;;5089467;28;20214;-86
2022/09/11 08:15:05;;;;;;;1.13;1.10;;;18.90;82.70;19.30;96556.00;;;;5087864;28;20278;-85
2022/09/11 08:17:33;;;;;;;1.03;1.00;;;18.80;83.40;19.30;96568.00;;;;5084139;28;20199;-85
2022/09/11 08:20:02;;;;;;;2.17;1.23;;;18.90;82.60;19.40;96572.00;;;;5079579;28;20195;-85
2022/09/11 08:22:29;;;;;;;1.20;1.20;;;18.90;82.60;19.40;96567.00;;;;5088379;28;20201;-86
2022/09/11 08:24:56;;;;;;;2.60;1.30;;;18.90;82.60;19.40;96572.00;;;;5090682;28;20223;-86
2022/09/11 08:27:23;;;;;;;1.43;1.33;;;19.00;82.70;19.50;96573.00;;;;5085607;28;20269;-86
2022/09/11 08:29:50;;;;;;;1.30;1.20;;;19.00;82.70;19.50;96574.00;;;;5080859;28;20222;-85
2022/09/11 08:32:17;;;;;;;1.90;1.47;;;19.00;82.70;19.60;96577.00;;;;5091409;28;20282;-85
2022/09/11 08:34:44;;;;;;;1.60;1.17;;;19.10;82.90;19.60;96586.00;;;;5083181;28;20226;-85
2022/09/11 08:37:13;;;;;;;1.60;1.50;;;19.10;83.10;19.70;96588.00;;;;5071334;28;20568;-86
2022/09/11 08:39:40;;;;;;;1.47;1.37;;;19.20;83.10;19.70;96583.00;;;;5070823;28;20235;-86
2022/09/11 08:42:15;;;;;;;3.37;1.87;;;19.20;83.00;19.80;96578.00;;;;5076261;28;20203;-85
2022/09/11 08:44:49;;;;;;;2.40;2.00;;;19.30;82.90;19.80;96582.00;;;;5097124;28;20641;-85
2022/09/11 08:47:23;;;;;;;1.77;1.67;;;19.30;82.80;19.90;96589.00;;;;5086290;28;20633;-85
2022/09/11 08:49:59;;;;;;;2.00;1.87;;;19.30;83.40;19.90;96585.00;;;;5078079;28;20281;-85
2022/09/11 08:52:28;;;;;;;1.70;1.60;;;19.40;82.60;19.90;96595.00;;;;5059111;28;20902;-86
2022/09/11 08:54:58;;;;;;;1.60;1.50;;;19.40;82.60;20.00;96594.00;;;;5078550;28;20207;-86
2022/09/11 08:57:40;;;;;;;1.50;1.40;;;19.40;82.60;20.00;96596.00;;;;5087388;28;20266;-86
2022/09/11 09:00:18;;;;;;;1.23;1.23;;;19.50;82.60;20.00;96600.00;;;;5090271;28;20211;-87
2022/09/11 09:03:12;;;;;;;1.53;1.43;;;19.50;82.30;20.00;96600.00;;;;5077403;28;20219;-87
2022/09/11 09:05:48;;;;;;;1.40;1.33;;;19.60;82.30;20.00;96607.00;;;;5105204;28;20188;-86
2022/09/11 09:08:45;;;;;;;1.57;1.47;;;19.60;82.10;20.00;96608.00;;;;5094663;28;20202;-87
2022/09/11 09:11:27;;;;;;;1.37;1.27;;;19.60;82.20;20.00;96607.00;;;;5094504;28;20571;-87
2022/09/11 09:14:43;;;;;;;1.53;1.43;;;19.60;82.00;20.00;96613.00;;;;5099090;28;20223;-86
2022/09/11 09:17:18;;;;;;;1.33;1.33;;;19.60;82.00;20.10;96614.00;;;;5084539;28;20223;-87
2022/09/11 09:19:54;;;;;;;1.73;1.50;;;19.60;81.90;20.10;96620.00;;;;5094348;28;20203;-86
2022/09/11 09:22:27;;;;;;;1.37;1.30;;;19.60;81.90;20.10;96624.00;;;;5099968;28;20187;-87
2022/09/11 09:25:01;;;;;;;1.87;1.70;;;19.60;81.90;20.10;96634.00;;;;5114176;28;20291;-87
2022/09/11 09:27:35;;;;;;;1.50;1.43;;;19.70;82.00;20.20;96632.00;;;;5106339;28;20197;-87
2022/09/11 09:30:06;;;;;;;1.80;1.70;;;19.70;82.00;20.20;96631.00;;;;5094920;28;20266;-87
2022/09/11 09:32:42;;;;;;;1.57;1.47;;;19.70;82.00;20.20;96634.00;;;;5106352;28;20221;-87
2022/09/11 09:35:18;;;;;;;1.67;1.57;;;19.70;82.10;20.20;96632.00;;;;5114362;28;20269;-87
2022/09/11 09:37:45;;;;;;;1.97;1.70;;;19.70;82.30;20.30;96636.00;;;;5104360;28;20723;-87
2022/09/11 09:40:18;;;;;;;1.90;1.80;;;19.70;82.00;20.30;96635.00;;;;5092769;28;20199;-87
2022/09/11 09:43:26;;;;;;;1.90;1.77;;;19.80;82.00;20.30;96641.00;;;;5093239;28;20257;-87
2022/09/11 09:46:10;;;;;;;2.50;1.63;;;19.80;82.20;20.30;96637.00;;;;5087326;28;20537;-87
2022/09/11 09:48:39;;;;;;;1.80;1.70;;;19.90;82.10;20.30;96644.00;;;;5087738;28;20611;-86
2022/09/11 09:51:12;;;;;;;2.00;1.77;;;19.90;81.90;20.40;96646.00;;;;5092334;28;20191;-86
2022/09/11 09:53:46;;;;;;;1.80;1.70;;;19.90;81.90;20.40;96643.00;;;;5093965;28;20216;-86
2022/09/11 09:56:19;;;;;;;1.87;1.77;;;19.90;81.80;20.40;96647.00;;;;5092582;28;20720;-86
2022/09/11 09:58:59;;;;;;;1.77;1.67;;;19.90;81.80;20.50;96638.00;;;;5097061;28;20740;-87
2022/09/11 10:01:49;;;;;;;2.07;1.97;;;19.90;81.80;20.50;96646.00;;;;5101951;28;20624;-86
2022/09/11 10:04:21;;;;;;;1.90;1.80;;;19.90;82.20;20.50;96645.00;;;;5089955;28;20215;-86
2022/09/11 10:06:52;;;;;;;2.17;2.07;;;20.00;81.90;20.60;96649.00;;;;5076226;28;20200;-86
2022/09/11 10:09:26;;;;;;;2.20;2.00;;;20.00;81.90;20.60;96645.00;;;;5079614;28;20191;-86
2022/09/11 10:12:02;;;;;;;1.97;1.87;;;20.00;82.10;20.70;96647.00;;;;5095313;28;20195;-87
2022/09/11 10:14:33;;;;;;;2.53;2.33;;;20.10;82.40;20.70;96645.00;;;;5089169;28;20269;-86
2022/09/11 10:17:02;;;;;;;2.20;2.10;;;20.10;82.20;20.80;96652.00;;;;5087246;28;20627;-86
2022/09/11 10:19:40;;;;;;;2.40;2.20;;;20.20;82.20;20.80;96649.00;;;;5089690;28;20191;-87
2022/09/11 10:22:31;;;;;;;1.90;1.80;;;20.20;82.30;20.90;96646.00;;;;5091026;28;20226;-86
2022/09/11 10:25:12;;;;;;;2.10;2.00;;;20.30;82.20;20.90;96647.00;;;;5091848;28;20215;-87
2022/09/11 10:27:50;;;;;;;1.70;1.60;;;20.30;81.80;21.00;96653.00;;;;5095169;28;20207;-86
2022/09/11 10:30:29;;;;;;;2.10;1.93;;;20.30;82.70;21.10;96656.00;;;;5093082;28;20219;-86
2022/09/11 10:32:58;;;;;;;1.63;1.40;;;20.40;82.00;21.10;96652.00;;;;5098009;28;20215;-86
2022/09/11 10:35:28;;;;;;;1.60;1.50;;;20.50;81.90;21.20;96650.00;;;;5079919;28;20195;-86
2022/09/11 10:38:16;;;;;;;1.80;1.63;;;20.50;81.60;21.20;96653.00;;;;5091661;28;20533;-86
2022/09/11 10:40:56;;;;;;;1.23;1.23;;;20.60;81.30;21.30;96661.00;;;;5090203;28;20193;-87
2022/09/11 10:43:46;;;;;;;1.40;1.30;;;20.60;81.20;21.30;96664.00;;;;5088688;28;20305;-86
2022/09/11 10:46:31;;;;;;;1.20;1.20;;;20.60;80.90;21.30;96662.00;;;;5090955;28;20203;-86
2022/09/11 10:49:08;;;;;;;1.57;1.47;;;20.70;81.10;21.40;96667.00;;;;5094220;28;20695;-86
2022/09/11 10:51:37;;;;;;;1.47;1.40;;;20.70;81.10;21.50;96664.00;;;;5091856;28;20239;-86
2022/09/11 10:54:29;;;;;;;1.27;1.27;;;20.80;81.20;21.50;96669.00;;;;5104533;22;20227;-81
2022/09/11 10:57:24;;;;;;;1.40;1.30;;;20.80;81.20;21.60;96680.00;;;;5094906;28;20199;-80
2022/09/11 11:00:14;;;;;;;1.80;1.70;;;20.90;81.60;21.70;96678.00;;;;5094174;28;20573;-80
2022/09/11 11:02:52;;;;;;;1.57;1.40;;;21.00;80.80;21.80;96670.00;;;;5085587;28;20192;-80
2022/09/11 11:05:33;;;;;;;1.60;1.50;;;21.10;80.50;21.80;96674.00;;;;5094813;28;20235;-80
2022/09/11 11:08:49;;;;;;;1.77;1.50;;;21.10;80.70;21.90;96673.00;;;;5078798;28;20600;-81
2022/09/11 11:11:39;;;;;;;2.70;1.47;;;21.20;81.00;22.00;96668.00;;;;5088751;28;20215;-81
2022/09/11 11:15:18;;;;;;;1.10;1.10;;;21.30;80.10;22.10;96675.00;;;;5089592;28;20203;-81
2022/09/11 11:18:10;;;;;;;1.47;1.37;;;21.30;79.10;22.10;96675.00;;;;5085586;28;21569;-80
2022/09/11 11:20:55;;;;;;;1.20;1.10;;;21.40;79.50;22.20;96682.00;;;;5095702;28;20288;-80
2022/09/11 11:23:49;;;;;;;1.80;1.70;;;21.50;79.70;22.30;96688.00;;;;5096638;28;20233;-81
2022/09/11 11:26:52;;;;;;;1.57;1.20;;;21.60;79.50;22.40;96688.00;;;;5085582;28;20203;-81